createdAt,value
2018-08-20T00:01:52.914Z,16.53
2018-08-20T00:04:00.345Z,15.40
2018-08-20T00:06:05.346Z,16.07
2018-08-20T00:08:10.319Z,14.47
2018-08-20T00:10:15.288Z,23.83
2018-08-20T00:12:20.622Z,18.57
2018-08-20T00:14:25.657Z,18.80
2018-08-20T00:16:30.627Z,27.10
2018-08-20T00:18:35.671Z,17.63
2018-08-20T00:20:40.668Z,16.93
2018-08-20T00:22:45.656Z,21.20
2018-08-20T00:25:07.069Z,15.63
2018-08-20T00:27:11.878Z,14.73
2018-08-20T00:29:16.828Z,19.33
2018-08-20T00:31:21.872Z,16.17
2018-08-20T00:33:26.820Z,20.53
2018-08-20T00:35:31.720Z,14.87
2018-08-20T00:37:36.881Z,18.97
2018-08-20T00:39:41.779Z,14.30
2018-08-20T00:41:47.138Z,20.30
2018-08-20T00:43:52.283Z,16.53
2018-08-20T00:45:57.263Z,21.17
2018-08-20T00:48:02.207Z,16.50
2018-08-20T00:50:08.833Z,16.50
2018-08-20T00:52:13.729Z,15.33
2018-08-20T00:54:18.565Z,23.73
2018-08-20T00:56:23.434Z,19.77
2018-08-20T00:58:28.336Z,25.27
2018-08-20T01:00:33.507Z,21.90
2018-08-20T01:02:38.390Z,21.53
2018-08-20T01:04:43.314Z,21.87
2018-08-20T01:06:48.453Z,17.80
2018-08-20T01:08:53.640Z,20.30
2018-08-20T01:10:58.753Z,20.07
2018-08-20T01:13:03.559Z,16.27
2018-08-20T01:15:08.901Z,21.83
2018-08-20T01:17:13.808Z,19.17
2018-08-20T01:19:18.767Z,21.20
2018-08-20T01:21:23.692Z,20.43
2018-08-20T01:23:28.491Z,28.27
2018-08-20T01:25:33.387Z,18.53
2018-08-20T01:27:38.397Z,15.27
2018-08-20T01:29:43.339Z,11.97
2018-08-20T01:31:48.237Z,16.20
2018-08-20T01:33:53.568Z,21.97
2018-08-20T01:35:58.322Z,14.20
2018-08-20T01:38:03.212Z,20.37
2018-08-20T01:40:08.147Z,21.47
2018-08-20T01:42:13.525Z,24.33
2018-08-20T01:44:18.374Z,17.73
2018-08-20T01:46:23.567Z,17.30
2018-08-20T01:48:28.802Z,21.83
2018-08-20T01:50:33.614Z,14.63
2018-08-20T01:52:38.691Z,13.70
2018-08-20T01:54:43.543Z,25.03
2018-08-20T01:56:48.434Z,13.47
2018-08-20T01:58:53.292Z,16.60
2018-08-20T02:00:59.630Z,19.03
2018-08-20T02:03:04.946Z,31.93
2018-08-20T02:05:10.102Z,20.80
2018-08-20T02:07:14.974Z,17.47
2018-08-20T02:09:19.942Z,27.13
2018-08-20T02:11:24.964Z,18.87
2018-08-20T02:13:30.540Z,17.73
2018-08-20T02:15:35.543Z,16.97
2018-08-20T02:17:40.557Z,13.87
2018-08-20T02:19:45.552Z,27.17
2018-08-20T02:21:50.451Z,18.20
2018-08-20T02:23:55.523Z,22.60
2018-08-20T02:26:00.449Z,28.33
2018-08-20T02:28:05.641Z,18.07
2018-08-20T02:30:10.628Z,17.50
2018-08-20T02:32:15.485Z,19.03
2018-08-20T02:34:20.301Z,18.93
2018-08-20T02:36:25.609Z,25.70
2018-08-20T02:38:31.340Z,21.23
2018-08-20T02:40:36.540Z,19.13
2018-08-20T02:42:41.457Z,19.40
2018-08-20T02:44:46.483Z,13.63
2018-08-20T02:46:55.995Z,17.27
2018-08-20T02:49:00.986Z,20.83
2018-08-20T02:51:06.059Z,17.37
2018-08-20T02:53:11.114Z,19.10
2018-08-20T02:55:16.016Z,14.27
2018-08-20T02:57:21.063Z,16.23
2018-08-20T02:59:25.981Z,16.40
2018-08-20T03:01:30.849Z,23.33
2018-08-20T03:03:35.950Z,18.20
2018-08-20T03:05:40.911Z,19.20
2018-08-20T03:07:45.824Z,15.43
2018-08-20T03:09:50.611Z,15.57
2018-08-20T03:11:55.715Z,19.10
2018-08-20T03:14:01.363Z,20.43
2018-08-20T03:16:06.504Z,21.77
2018-08-20T03:18:12.121Z,22.10
2018-08-20T03:20:17.055Z,17.87
2018-08-20T03:22:23.141Z,16.40
2018-08-20T03:24:28.187Z,15.23
2018-08-20T03:26:33.383Z,20.23
2018-08-20T03:28:38.337Z,13.13
2018-08-20T03:30:43.412Z,15.63
2018-08-20T03:32:48.349Z,16.43
2018-08-20T03:34:53.164Z,18.90
2018-08-20T03:36:58.239Z,16.40
2018-08-20T03:39:03.383Z,16.07
2018-08-20T03:41:08.503Z,14.20
2018-08-20T03:43:13.443Z,19.90
2018-08-20T03:45:18.512Z,17.90
2018-08-20T03:47:23.464Z,25.03
2018-08-20T03:49:28.525Z,20.70
2018-08-20T03:51:33.546Z,16.90
2018-08-20T03:53:38.551Z,17.03
2018-08-20T03:55:43.611Z,16.43
2018-08-20T03:57:55.152Z,10.87
2018-08-20T04:00:00.189Z,14.83
2018-08-20T04:02:06.579Z,15.97
2018-08-20T04:04:11.586Z,12.33
2018-08-20T04:06:16.539Z,14.53
2018-08-20T04:08:21.447Z,22.00
2018-08-20T04:10:26.400Z,17.00
2018-08-20T04:12:31.378Z,11.37
2018-08-20T04:14:36.398Z,18.27
2018-08-20T04:16:41.313Z,10.70
2018-08-20T04:18:46.117Z,12.07
2018-08-20T04:20:51.032Z,18.47
2018-08-20T04:22:55.969Z,9.70
2018-08-20T04:25:00.768Z,9.67
2018-08-20T04:27:05.806Z,11.50
2018-08-20T04:29:11.675Z,12.93
2018-08-20T04:31:16.605Z,9.43
2018-08-20T04:33:21.428Z,10.90
2018-08-20T04:35:26.435Z,14.77
2018-08-20T04:37:31.655Z,8.90
2018-08-20T04:39:38.014Z,12.73
2018-08-20T04:41:43.285Z,11.30
2018-08-20T04:43:48.221Z,15.80
2018-08-20T04:45:53.109Z,13.87
2018-08-20T04:47:58.038Z,8.90
2018-08-20T04:50:03.876Z,10.67
2018-08-20T04:52:09.826Z,13.17
2018-08-20T04:54:15.189Z,12.50
2018-08-20T04:56:20.089Z,8.40
2018-08-20T04:58:24.996Z,5.67
2018-08-20T05:00:29.927Z,7.23
2018-08-20T05:02:34.916Z,7.20
2018-08-20T05:04:40.155Z,7.87
2018-08-20T05:06:45.219Z,10.07
2018-08-20T05:08:50.064Z,7.20
2018-08-20T05:10:54.958Z,10.27
2018-08-20T05:12:59.849Z,7.87
2018-08-20T05:15:05.375Z,6.80
2018-08-20T05:17:10.202Z,4.90
2018-08-20T05:19:15.113Z,7.10
2018-08-20T05:21:19.988Z,7.70
2018-08-20T05:23:26.191Z,27.27
2018-08-20T05:25:31.429Z,4.77
2018-08-20T05:27:36.218Z,8.77
2018-08-20T05:34:35.227Z,4.70
2018-08-20T05:36:51.596Z,8.70
2018-08-20T05:39:10.053Z,7.20
2018-08-20T05:41:14.983Z,7.10
2018-08-20T05:43:20.019Z,9.03
2018-08-20T05:45:25.002Z,8.00
2018-08-20T05:47:29.834Z,12.67
2018-08-20T05:49:34.690Z,12.33
2018-08-20T05:51:39.733Z,8.67
2018-08-20T05:53:48.769Z,6.07
2018-08-20T05:55:57.839Z,8.00
2018-08-20T05:58:03.120Z,9.90
2018-08-20T06:00:15.173Z,10.97
2018-08-20T06:02:20.175Z,9.80
2018-08-20T06:04:25.224Z,13.53
2018-08-20T06:06:31.756Z,8.67
2018-08-20T06:08:36.734Z,9.17
2018-08-20T06:10:47.745Z,13.60
2018-08-20T06:12:54.722Z,9.10
2018-08-20T06:15:03.333Z,8.97
2018-08-20T06:17:09.563Z,8.63
2018-08-20T06:19:17.620Z,12.90
2018-08-20T06:21:22.645Z,13.20
2018-08-20T06:23:27.994Z,9.50
2018-08-20T06:25:34.733Z,17.70
2018-08-20T06:27:41.164Z,13.93
2018-08-20T06:29:46.133Z,13.10
2018-08-20T06:31:51.085Z,20.63
2018-08-20T06:33:56.496Z,12.67
2018-08-20T06:36:01.403Z,7.67
2018-08-20T06:38:06.631Z,10.03
2018-08-20T06:40:14.742Z,11.57
2018-08-20T06:42:19.666Z,13.23
2018-08-20T06:44:24.610Z,8.53
2018-08-20T06:46:29.459Z,12.27
2018-08-20T06:48:34.310Z,10.27
2018-08-20T06:50:39.445Z,12.70
2018-08-20T06:52:45.107Z,12.33
2018-08-20T06:54:50.339Z,12.83
2018-08-20T06:56:55.233Z,15.83
2018-08-20T06:59:00.387Z,35.67
2018-08-20T07:01:05.310Z,11.57
2018-08-20T07:03:10.790Z,18.17
2018-08-20T07:05:15.800Z,11.87
2018-08-20T07:07:20.874Z,8.60
2018-08-20T07:09:25.949Z,13.60
2018-08-20T07:11:30.736Z,10.07
2018-08-20T07:13:36.646Z,18.50
2018-08-20T07:15:41.764Z,8.30
2018-08-20T07:17:46.823Z,9.97
2018-08-20T07:19:52.365Z,17.03
2018-08-20T07:21:57.550Z,19.80
2018-08-20T07:24:03.020Z,11.80
2018-08-20T07:26:08.326Z,12.60
2018-08-20T07:28:13.697Z,15.17
2018-08-20T07:30:18.598Z,13.43
2018-08-20T07:32:24.129Z,19.03
2018-08-20T07:34:30.389Z,25.70
2018-08-20T07:36:35.573Z,17.23
2018-08-20T07:38:40.558Z,17.27
2018-08-20T07:40:45.535Z,23.80
2018-08-20T07:42:50.480Z,16.90
2018-08-20T07:44:55.613Z,10.50
2018-08-20T07:47:00.701Z,21.33
2018-08-20T07:49:09.863Z,20.13
2018-08-20T07:51:14.798Z,20.50
2018-08-20T07:53:19.728Z,19.90
2018-08-20T07:55:24.925Z,22.93
2018-08-20T07:57:31.667Z,21.63
2018-08-20T07:59:36.806Z,17.60
2018-08-20T08:01:42.053Z,18.20
2018-08-20T08:03:47.416Z,22.47
2018-08-20T08:05:52.609Z,19.40
2018-08-20T08:07:57.597Z,27.33
2018-08-20T08:10:02.569Z,21.10
2018-08-20T08:12:08.201Z,20.07
2018-08-20T08:14:13.366Z,20.10
2018-08-20T08:16:18.286Z,23.20
2018-08-20T08:18:24.235Z,25.83
2018-08-20T08:20:29.141Z,21.73
2018-08-20T08:22:34.032Z,32.33
2018-08-20T08:24:39.008Z,23.03
2018-08-20T08:26:44.487Z,30.27
2018-08-20T08:28:50.372Z,31.70
2018-08-20T08:30:55.413Z,22.33
2018-08-20T08:33:00.333Z,26.87
2018-08-20T08:35:05.997Z,21.13
2018-08-20T08:37:11.084Z,30.30
2018-08-20T08:39:16.684Z,26.23
2018-08-20T08:41:21.780Z,23.77
2018-08-20T08:43:26.762Z,23.27
2018-08-20T08:45:31.745Z,26.77
2018-08-20T08:47:36.710Z,26.77
2018-08-20T08:49:41.777Z,23.37
2018-08-20T08:51:46.783Z,26.33
2018-08-20T08:53:51.903Z,24.50
2018-08-20T08:55:56.944Z,22.77
2018-08-20T08:58:01.947Z,25.97
2018-08-20T09:00:17.591Z,26.87
2018-08-20T09:02:22.694Z,21.10
2018-08-20T09:04:27.686Z,29.83
2018-08-20T09:06:32.726Z,33.10
2018-08-20T09:08:37.534Z,21.13
2018-08-20T09:10:43.598Z,26.60
2018-08-20T09:12:48.694Z,21.43
2018-08-20T09:14:53.685Z,21.13
2018-08-20T09:17:00.619Z,22.83
2018-08-20T09:19:05.809Z,18.90
2018-08-20T09:21:11.065Z,29.40
2018-08-20T09:23:16.145Z,21.80
2018-08-20T09:25:21.142Z,24.20
2018-08-20T09:27:26.061Z,18.00
2018-08-20T09:29:31.243Z,26.00
2018-08-20T09:31:37.229Z,18.00
2018-08-20T09:33:42.328Z,21.30
2018-08-20T09:35:47.293Z,24.13
2018-08-20T09:37:52.466Z,19.97
2018-08-20T09:39:57.506Z,16.00
2018-08-20T09:42:02.492Z,17.40
2018-08-20T09:44:07.706Z,18.57
2018-08-20T09:46:12.663Z,18.53
2018-08-20T09:48:17.806Z,17.43
2018-08-20T09:50:22.886Z,18.83
2018-08-20T09:52:27.970Z,21.00
2018-08-20T09:54:33.302Z,25.77
2018-08-20T09:56:38.332Z,20.30
2018-08-20T09:58:43.564Z,16.80
2018-08-20T10:00:48.708Z,21.10
2018-08-20T10:02:53.772Z,26.90
2018-08-20T10:04:59.257Z,24.73
2018-08-20T10:07:04.656Z,24.47
2018-08-20T10:09:10.233Z,21.57
2018-08-20T10:11:15.180Z,19.90
2018-08-20T10:13:20.094Z,21.73
2018-08-20T10:15:25.306Z,19.30
2018-08-20T10:17:30.218Z,24.87
2018-08-20T10:19:35.550Z,20.00
2018-08-20T10:21:40.391Z,24.30
2018-08-20T10:23:45.245Z,21.67
2018-08-20T10:25:50.417Z,19.67
2018-08-20T10:27:55.761Z,24.90
2018-08-20T10:30:00.726Z,24.30
2018-08-20T10:32:05.772Z,19.17
2018-08-20T10:34:10.761Z,27.00
2018-08-20T10:36:15.885Z,25.87
2018-08-20T10:38:20.779Z,24.97
2018-08-20T10:40:25.636Z,30.77
2018-08-20T10:42:30.837Z,31.70
2018-08-20T10:44:40.742Z,30.10
2018-08-20T10:46:45.674Z,23.13
2018-08-20T10:48:50.739Z,34.77
2018-08-20T10:50:55.686Z,34.33
2018-08-20T10:53:00.638Z,33.77
2018-08-20T10:55:05.825Z,29.83
2018-08-20T10:57:10.692Z,24.07
2018-08-20T10:59:15.641Z,28.90
2018-08-20T11:01:20.516Z,26.93
2018-08-20T11:03:25.977Z,27.50
2018-08-20T11:05:31.639Z,23.80
2018-08-20T11:07:36.571Z,28.53
2018-08-20T11:09:41.476Z,26.27
2018-08-20T11:11:46.389Z,26.27
2018-08-20T11:13:51.293Z,34.27
2018-08-20T11:15:56.241Z,31.60
2018-08-20T11:18:01.188Z,28.37
2018-08-20T11:20:17.142Z,34.47
2018-08-20T11:22:22.026Z,39.87
2018-08-20T11:24:26.996Z,32.60
2018-08-20T11:26:32.678Z,29.77
2018-08-20T11:28:39.892Z,40.43
2018-08-20T11:30:49.618Z,27.03
2018-08-20T11:32:54.751Z,25.47
2018-08-20T11:34:59.610Z,26.87
2018-08-20T11:37:04.569Z,37.43
2018-08-20T11:39:09.894Z,28.97
2018-08-20T11:41:14.865Z,33.53
2018-08-20T11:43:19.748Z,27.97
2018-08-20T11:45:24.978Z,34.97
2018-08-20T11:47:29.917Z,30.13
2018-08-20T11:49:34.757Z,31.97
2018-08-20T11:51:40.524Z,33.60
2018-08-20T11:53:45.597Z,27.97
2018-08-20T11:55:50.662Z,26.10
2018-08-20T11:57:55.577Z,25.27
2018-08-20T12:00:00.532Z,27.67
2018-08-20T12:02:05.516Z,29.90
2018-08-20T12:04:10.552Z,21.63
2018-08-20T12:06:15.610Z,37.70
2018-08-20T12:08:29.738Z,28.63
2018-08-20T12:10:35.133Z,23.80
2018-08-20T12:12:40.565Z,33.07
2018-08-20T12:14:45.712Z,22.27
2018-08-20T12:16:50.690Z,26.70
2018-08-20T12:18:55.564Z,23.93
2018-08-20T12:21:00.834Z,19.07
2018-08-20T12:23:05.719Z,23.43
2018-08-20T12:25:13.538Z,24.43
2018-08-20T12:27:19.388Z,24.90
2018-08-20T12:29:24.499Z,28.40
2018-08-20T12:31:30.072Z,18.87
2018-08-20T12:33:35.016Z,19.37
2018-08-20T12:35:40.854Z,26.07
2018-08-20T12:37:46.229Z,21.23
2018-08-20T12:39:51.284Z,21.57
2018-08-20T12:41:56.127Z,21.00
2018-08-20T12:44:01.016Z,28.97
2018-08-20T12:46:07.685Z,25.23
2018-08-20T12:48:12.545Z,26.30
2018-08-20T12:50:17.622Z,25.10
2018-08-20T12:52:23.401Z,19.27
2018-08-20T12:54:31.321Z,30.40
2018-08-20T12:56:36.696Z,22.37
2018-08-20T12:58:51.697Z,23.73
2018-08-20T13:00:57.981Z,23.47
2018-08-20T13:03:03.027Z,17.27
2018-08-20T13:05:07.915Z,23.93
2018-08-20T13:07:13.058Z,26.60
2018-08-20T13:09:18.018Z,25.10
2018-08-20T13:11:22.948Z,22.83
2018-08-20T13:13:28.001Z,21.90
2018-08-20T13:15:33.637Z,24.07
2018-08-20T13:17:39.232Z,20.90
2018-08-20T13:19:44.204Z,21.67
2018-08-20T13:21:49.204Z,30.37
2018-08-20T13:23:54.438Z,39.83
2018-08-20T13:25:59.537Z,36.73
2018-08-20T13:28:04.767Z,38.40
2018-08-20T13:30:10.979Z,38.03
2018-08-20T13:32:16.060Z,35.50
2018-08-20T13:34:21.330Z,34.30
2018-08-20T13:36:26.186Z,33.47
2018-08-20T13:38:31.088Z,44.83
2018-08-20T13:40:36.139Z,35.93
2018-08-20T13:42:41.121Z,26.67
2018-08-20T13:44:46.330Z,29.90
2018-08-20T13:46:51.671Z,34.80
2018-08-20T13:48:56.715Z,23.93
2018-08-20T13:51:04.613Z,21.30
2018-08-20T13:53:09.490Z,20.10
2018-08-20T13:55:14.607Z,24.50
2018-08-20T13:57:19.591Z,22.30
2018-08-20T13:59:24.942Z,17.90
2018-08-20T14:01:30.509Z,23.20
2018-08-20T14:03:36.151Z,18.80
2018-08-20T14:05:41.079Z,22.10
2018-08-20T14:07:51.562Z,14.80
2018-08-20T14:09:56.500Z,17.10
2018-08-20T14:12:01.445Z,15.03
2018-08-20T14:14:06.807Z,14.13
2018-08-20T14:16:11.709Z,11.10
2018-08-20T14:18:16.589Z,16.47
2018-08-20T14:20:21.498Z,14.13
2018-08-20T14:22:27.492Z,19.93
2018-08-20T14:24:34.625Z,20.90
2018-08-20T14:26:39.629Z,16.20
2018-08-20T14:28:44.714Z,18.57
2018-08-20T14:30:50.043Z,14.67
2018-08-20T14:32:56.830Z,16.80
2018-08-20T14:35:02.676Z,10.53
2018-08-20T14:37:07.946Z,12.33
2018-08-20T14:39:13.408Z,11.67
2018-08-20T14:41:19.523Z,21.80
2018-08-20T14:43:25.426Z,14.00
2018-08-20T14:45:40.766Z,12.27
2018-08-20T14:47:46.956Z,6.63
2018-08-20T14:49:52.011Z,12.80
2018-08-20T14:57:27.105Z,21.90
2018-08-20T15:02:30.735Z,12.13
2018-08-20T15:04:42.914Z,7.00
2018-08-20T15:07:08.197Z,18.60
2018-08-20T15:09:19.585Z,14.53
2018-08-20T15:11:25.106Z,12.80
2018-08-20T15:13:33.363Z,9.80
2018-08-20T15:15:44.500Z,9.77
2018-08-20T15:17:49.667Z,10.07
2018-08-20T15:19:56.876Z,10.83
2018-08-20T15:22:01.949Z,13.73
2018-08-20T15:24:07.354Z,5.93
2018-08-20T15:26:13.840Z,12.47
2018-08-20T15:28:18.907Z,12.60
2018-08-20T15:30:26.723Z,13.63
2018-08-20T15:32:31.911Z,8.77
2018-08-20T15:34:38.843Z,7.27
2018-08-20T15:36:43.976Z,9.03
2018-08-20T15:38:48.912Z,9.53
2018-08-20T15:40:54.530Z,9.90
2018-08-20T15:42:59.401Z,6.07
2018-08-20T15:45:04.403Z,9.77
2018-08-20T15:47:09.455Z,8.97
2018-08-20T15:49:14.541Z,10.10
2018-08-20T15:51:19.498Z,6.43
2018-08-20T15:53:24.324Z,6.70
2018-08-20T15:55:29.424Z,5.43
2018-08-20T15:57:35.709Z,6.37
2018-08-20T15:59:41.616Z,7.07
2018-08-20T16:01:49.455Z,19.33
2018-08-20T16:03:54.526Z,4.93
2018-08-20T16:06:00.970Z,10.00
2018-08-20T16:08:06.645Z,5.87
2018-08-20T16:10:13.110Z,8.30
2018-08-20T16:12:23.669Z,5.93
2018-08-20T16:14:28.501Z,5.10
2018-08-20T16:16:33.594Z,5.43
2018-08-20T16:18:38.615Z,4.00
2018-08-20T16:20:47.985Z,4.10
2018-08-20T16:22:52.981Z,6.37
2018-08-20T16:24:58.030Z,5.27
2018-08-20T16:27:03.094Z,2.90
2018-08-20T16:29:09.726Z,5.90
2018-08-20T16:31:17.027Z,2.90
2018-08-20T16:33:26.154Z,3.30
2018-08-20T16:35:31.891Z,2.83
2018-08-20T16:37:37.934Z,3.90
2018-08-20T16:39:43.856Z,3.97
2018-08-20T16:41:50.292Z,7.63
2018-08-20T16:43:57.115Z,4.00
2018-08-20T16:46:03.044Z,2.63
2018-08-20T16:48:08.499Z,4.80
2018-08-20T16:50:14.363Z,3.93
2018-08-20T16:52:22.855Z,3.17
2018-08-20T16:54:33.310Z,3.80
2018-08-20T16:56:39.381Z,4.97
2018-08-20T16:58:46.126Z,8.57
2018-08-20T17:00:55.302Z,4.73
2018-08-20T17:03:02.351Z,7.87
2018-08-20T17:05:07.673Z,4.87
2018-08-20T17:07:14.563Z,3.40
2018-08-20T17:09:20.054Z,8.67
2018-08-20T17:11:24.991Z,7.37
2018-08-20T17:13:30.379Z,7.23
2018-08-20T17:15:35.430Z,6.27
2018-08-20T17:17:42.419Z,3.63
2018-08-20T17:19:47.968Z,6.60
2018-08-20T17:21:57.069Z,5.83
2018-08-20T17:24:02.612Z,8.30
2018-08-20T17:26:09.553Z,5.53
2018-08-20T17:28:15.047Z,3.87
2018-08-20T17:30:22.586Z,4.17
2018-08-20T17:32:28.009Z,4.10
2018-08-20T17:34:33.347Z,3.53
2018-08-20T17:40:02.884Z,8.13
2018-08-20T17:42:08.718Z,4.93
2018-08-20T17:44:23.095Z,4.60
2018-08-20T17:46:29.877Z,1.97
2018-08-20T17:48:35.610Z,4.23
2018-08-20T17:50:43.377Z,2.83
2018-08-20T17:52:48.405Z,2.90
2018-08-20T17:55:05.934Z,1.93
2018-08-20T17:57:16.967Z,4.80
2018-08-20T17:59:24.562Z,7.67
2018-08-20T18:01:31.865Z,2.83
2018-08-20T18:03:37.502Z,2.77
2018-08-20T18:05:43.393Z,2.00
2018-08-20T18:07:52.238Z,4.30
2018-08-20T18:09:57.554Z,1.87
2018-08-20T18:12:04.217Z,3.80
2018-08-20T18:14:09.684Z,2.00
2018-08-20T18:16:16.822Z,3.90
2018-08-20T18:18:25.396Z,5.33
2018-08-20T18:20:36.306Z,3.90
2018-08-20T18:22:41.564Z,3.53
2018-08-20T18:24:48.025Z,5.03
2018-08-20T18:26:56.685Z,3.10
2018-08-20T18:29:01.772Z,9.00
2018-08-20T18:31:12.927Z,3.00
2018-08-20T18:33:19.072Z,9.23
2018-08-20T18:35:33.155Z,4.30
2018-08-20T18:37:52.649Z,7.13
2018-08-20T18:40:01.702Z,14.47
2018-08-20T18:42:15.185Z,5.47
2018-08-20T18:44:21.849Z,6.70
2018-08-20T18:46:29.755Z,5.40
2018-08-20T18:48:40.676Z,6.30
2018-08-20T18:50:47.845Z,4.73
2018-08-20T18:53:04.277Z,3.43
2018-08-20T18:55:34.116Z,5.20
2018-08-20T19:02:58.488Z,3.53
2018-08-20T19:05:07.487Z,3.33
2018-08-20T19:07:15.816Z,3.47
2018-08-20T19:09:27.097Z,6.10
2018-08-20T19:11:35.170Z,3.57
2018-08-20T19:13:46.317Z,3.83
2018-08-20T19:15:54.158Z,4.20
2018-08-20T19:18:00.820Z,6.83
2018-08-20T19:20:06.136Z,4.50
2018-08-20T19:22:16.211Z,8.17
2018-08-20T19:24:23.552Z,6.60
2018-08-20T19:26:30.414Z,8.23
2018-08-20T19:28:39.704Z,5.37
2018-08-20T19:30:45.597Z,3.23
2018-08-20T19:32:53.175Z,3.33
2018-08-20T19:34:58.756Z,4.80
2018-08-20T19:37:04.568Z,6.17
2018-08-20T19:39:10.694Z,12.63
2018-08-20T19:41:17.743Z,5.33
2018-08-20T19:43:24.102Z,3.40
2018-08-20T19:45:35.259Z,5.13
2018-08-20T19:47:41.309Z,2.90
2018-08-20T19:49:48.293Z,2.83
2018-08-20T19:51:57.432Z,7.60
2018-08-20T19:54:05.310Z,4.53
2018-08-20T19:56:22.465Z,5.63
2018-08-20T19:58:34.691Z,4.80
2018-08-20T20:00:42.696Z,4.07
2018-08-20T20:02:49.078Z,2.67
2018-08-20T20:04:55.471Z,3.00
2018-08-20T20:07:02.291Z,3.30
2018-08-20T20:09:15.272Z,3.90
2018-08-20T20:11:26.655Z,6.73
2018-08-20T20:13:34.462Z,2.40
2018-08-20T20:15:49.493Z,4.10
2018-08-20T20:17:57.807Z,2.97
2018-08-20T20:20:06.545Z,5.63
2018-08-20T20:22:18.088Z,2.83
2018-08-20T20:24:25.558Z,3.10
2018-08-20T20:26:40.112Z,2.77
2018-08-20T20:28:46.307Z,5.07
2018-08-20T20:30:55.879Z,3.90
2018-08-20T20:33:02.089Z,2.63
2018-08-20T20:35:09.088Z,2.53
2018-08-20T20:37:14.846Z,2.93
2018-08-20T20:39:20.431Z,5.20
2018-08-20T20:41:25.807Z,3.60
2018-08-20T20:43:37.332Z,8.67
2018-08-20T20:45:43.083Z,5.07
2018-08-20T20:47:49.231Z,4.60
2018-08-20T20:49:56.073Z,5.83
2018-08-20T20:52:02.654Z,7.80
2018-08-20T20:54:07.820Z,5.07
2018-08-20T20:56:16.182Z,3.20
2018-08-20T20:58:25.289Z,7.70
2018-08-20T21:00:32.372Z,3.43
2018-08-20T21:05:01.280Z,3.10
2018-08-20T21:07:08.121Z,5.53
2018-08-20T21:09:14.667Z,5.20
2018-08-20T21:11:22.451Z,5.83
2018-08-20T21:13:29.819Z,4.70
2018-08-20T21:15:35.234Z,2.97
2018-08-20T21:17:41.348Z,2.73
2018-08-20T21:19:49.184Z,3.67
2018-08-20T21:22:12.942Z,6.00
2018-08-20T21:24:46.777Z,2.40
2018-08-20T21:27:05.869Z,7.30
2018-08-20T21:32:11.325Z,2.13
2018-08-20T21:39:28.010Z,3.43
2018-08-20T21:44:23.544Z,3.53
2018-08-20T21:46:42.924Z,3.03
2018-08-20T21:49:09.702Z,2.50
2018-08-20T21:51:33.704Z,4.43
2018-08-20T21:53:51.575Z,2.70
2018-08-20T21:55:59.269Z,3.83
2018-08-20T21:58:04.743Z,5.30
2018-08-20T22:02:34.444Z,11.90
2018-08-20T22:04:40.340Z,3.83
2018-08-20T22:06:55.704Z,5.40
2018-08-20T22:09:03.061Z,2.57
2018-08-20T22:13:38.971Z,3.57
2018-08-20T22:15:51.192Z,3.20
2018-08-20T22:17:59.375Z,2.33
2018-08-20T22:20:11.757Z,2.93
2018-08-20T22:22:29.624Z,2.40
2018-08-20T22:24:34.807Z,3.20
2018-08-20T22:26:59.382Z,4.20
2018-08-20T22:29:10.548Z,3.23
2018-08-20T22:31:17.039Z,3.40
2018-08-20T22:33:21.968Z,2.47
2018-08-20T22:35:31.442Z,3.43
2018-08-20T22:37:37.120Z,5.80
2018-08-20T22:39:43.754Z,3.53
2018-08-20T22:41:50.645Z,7.07
2018-08-20T22:43:55.672Z,3.13
2018-08-20T22:46:00.714Z,2.23
2018-08-20T22:48:05.743Z,3.00
2018-08-20T22:50:10.813Z,5.27
2018-08-20T22:52:20.092Z,9.23
2018-08-20T22:54:25.343Z,3.33
2018-08-20T22:56:38.237Z,5.67
2018-08-20T22:58:44.463Z,2.80
2018-08-20T23:00:50.729Z,2.47
2018-08-20T23:03:00.004Z,3.50
2018-08-20T23:05:06.861Z,3.30
2018-08-20T23:07:14.090Z,6.23
2018-08-20T23:09:31.663Z,3.23
2018-08-20T23:11:42.791Z,3.87
2018-08-20T23:13:48.929Z,2.60
2018-08-20T23:16:00.806Z,6.20
2018-08-20T23:18:07.265Z,2.70
2018-08-20T23:20:21.001Z,3.40
2018-08-20T23:22:26.328Z,2.37
2018-08-20T23:24:31.452Z,2.50
2018-08-20T23:26:36.714Z,1.83
2018-08-20T23:28:43.668Z,2.00
2018-08-20T23:30:53.358Z,3.07
2018-08-20T23:32:58.556Z,4.00
2018-08-20T23:35:03.689Z,1.93
2018-08-20T23:37:08.764Z,1.83
2018-08-20T23:39:17.094Z,2.60
2018-08-20T23:41:22.038Z,4.10
2018-08-20T23:43:27.072Z,2.10
2018-08-20T23:45:32.116Z,1.90
2018-08-20T23:47:37.325Z,2.03
2018-08-20T23:49:42.825Z,2.90
2018-08-20T23:53:50.696Z,5.53
2018-08-20T23:55:55.894Z,1.53
2018-08-20T23:58:01.615Z,5.80
